createdAt,value
2023-04-22T00:01:02.261Z,54.95
2023-04-22T00:04:06.871Z,55.15
2023-04-22T00:07:13.537Z,55.86
2023-04-22T00:10:26.922Z,55.01
2023-04-22T00:13:31.748Z,55.57
2023-04-22T00:16:36.545Z,55.70
2023-04-22T00:19:41.777Z,57.01
2023-04-22T00:22:46.415Z,56.17
2023-04-22T00:25:50.617Z,56.40
2023-04-22T00:28:55.133Z,55.60
2023-04-22T00:31:59.756Z,56.23
2023-04-22T00:35:04.260Z,55.16
2023-04-22T00:38:09.198Z,53.78
2023-04-22T00:41:14.207Z,54.23
2023-04-22T00:44:19.726Z,53.30
2023-04-22T00:47:27.586Z,53.52
2023-04-22T00:50:32.120Z,51.98
2023-04-22T00:53:37.018Z,50.17
2023-04-22T00:56:41.898Z,48.82
2023-04-22T00:59:46.490Z,50.04
2023-04-22T01:02:50.888Z,49.30
2023-04-22T01:05:55.484Z,48.78
2023-04-22T01:09:00.702Z,47.30
2023-04-22T01:12:05.384Z,48.25
2023-04-22T01:15:10.506Z,47.70
2023-04-22T01:18:15.528Z,49.65
2023-04-22T01:21:20.492Z,50.39
2023-04-22T01:24:24.580Z,49.29
2023-04-22T01:27:29.618Z,45.76
2023-04-22T01:30:34.719Z,47.08
2023-04-22T01:33:40.119Z,45.98
2023-04-22T01:36:45.959Z,46.74
2023-04-22T01:39:51.615Z,47.56
2023-04-22T01:42:56.265Z,46.71
2023-04-22T01:46:03.468Z,49.75
2023-04-22T01:49:08.484Z,49.47
2023-04-22T01:52:12.652Z,48.91
2023-04-22T01:55:17.363Z,48.56
2023-04-22T01:58:21.873Z,47.05
2023-04-22T02:01:27.086Z,45.09
2023-04-22T02:04:31.593Z,44.57
2023-04-22T02:07:37.309Z,46.41
2023-04-22T02:10:41.587Z,45.83
2023-04-22T02:13:46.315Z,46.42
2023-04-22T02:16:52.654Z,46.60
2023-04-22T02:19:56.878Z,46.55
2023-04-22T02:23:01.526Z,47.24
2023-04-22T02:26:06.751Z,44.54
2023-04-22T02:29:12.048Z,41.50
2023-04-22T02:32:18.256Z,41.01
2023-04-22T02:35:23.051Z,42.80
2023-04-22T02:38:27.827Z,42.63
2023-04-22T02:41:32.220Z,44.57
2023-04-22T02:44:36.738Z,44.85
2023-04-22T02:47:41.267Z,44.55
2023-04-22T02:50:45.852Z,42.32
2023-04-22T02:53:50.563Z,40.40
2023-04-22T02:56:55.130Z,38.92
2023-04-22T02:59:59.731Z,40.56
2023-04-22T03:03:04.783Z,40.03
2023-04-22T03:06:11.112Z,41.30
2023-04-22T03:09:15.424Z,42.24
2023-04-22T03:12:19.942Z,41.44
2023-04-22T03:15:23.996Z,43.57
2023-04-22T03:18:28.305Z,44.83
2023-04-22T03:21:33.687Z,44.00
2023-04-22T03:24:38.738Z,42.49
2023-04-22T03:27:46.214Z,42.75
2023-04-22T03:30:50.890Z,41.94
2023-04-22T03:33:55.724Z,42.23
2023-04-22T03:37:06.532Z,42.10
2023-04-22T03:40:13.561Z,40.73
2023-04-22T03:43:18.967Z,40.99
2023-04-22T03:46:33.553Z,40.61
2023-04-22T03:49:58.498Z,41.70
2023-04-22T03:53:02.969Z,41.66
2023-04-22T03:56:07.149Z,42.83
2023-04-22T03:59:15.629Z,44.32
2023-04-22T04:02:20.373Z,45.67
2023-04-22T04:05:25.329Z,46.09
2023-04-22T04:08:30.312Z,45.56
2023-04-22T04:11:37.016Z,44.38
2023-04-22T04:14:42.001Z,42.77
2023-04-22T04:17:49.248Z,42.00
2023-04-22T04:20:57.262Z,41.81
2023-04-22T04:24:04.962Z,40.23
2023-04-22T04:27:13.426Z,40.18
2023-04-22T04:30:26.453Z,39.91
2023-04-22T04:33:33.668Z,40.15
2023-04-22T04:36:40.705Z,39.59
2023-04-22T04:39:52.088Z,39.24
2023-04-22T04:43:00.007Z,39.71
2023-04-22T04:46:10.529Z,37.98
2023-04-22T04:49:15.870Z,37.38
2023-04-22T04:52:30.065Z,37.49
2023-04-22T04:55:35.558Z,36.74
2023-04-22T04:58:44.878Z,35.61
2023-04-22T05:02:04.453Z,36.43
2023-04-22T05:05:13.524Z,36.30
2023-04-22T05:08:20.440Z,34.75
2023-04-22T05:11:27.490Z,35.18
2023-04-22T05:14:33.256Z,34.78
2023-04-22T05:17:37.370Z,33.83
2023-04-22T05:20:41.897Z,33.50
2023-04-22T05:23:47.739Z,32.33
2023-04-22T05:26:53.581Z,32.35
2023-04-22T05:29:58.701Z,32.61
2023-04-22T05:33:11.145Z,32.28
2023-04-22T05:36:17.544Z,31.27
2023-04-22T05:39:24.417Z,31.13
2023-04-22T05:42:29.242Z,32.07
2023-04-22T05:45:33.854Z,32.37
2023-04-22T05:48:41.457Z,32.40
2023-04-22T05:51:55.499Z,32.54
2023-04-22T05:55:04.714Z,32.04
2023-04-22T05:58:09.690Z,32.63
2023-04-22T06:01:26.085Z,32.98
2023-04-22T06:04:43.810Z,31.87
2023-04-22T06:07:48.674Z,34.65
2023-04-22T06:10:53.236Z,35.57
2023-04-22T06:13:58.527Z,37.11
2023-04-22T06:17:03.503Z,36.74
2023-04-22T06:20:08.428Z,37.17
2023-04-22T06:23:12.763Z,37.45
2023-04-22T06:26:17.403Z,36.90
2023-04-22T06:29:24.809Z,37.36
2023-04-22T06:32:30.691Z,37.65
2023-04-22T06:35:35.342Z,37.85
2023-04-22T06:38:39.918Z,37.32
2023-04-22T06:42:16.432Z,36.97
2023-04-22T06:45:46.581Z,36.39
2023-04-22T06:49:09.582Z,36.82
2023-04-22T06:52:39.597Z,37.23
2023-04-22T06:55:44.610Z,37.16
2023-04-22T06:58:49.192Z,37.71
2023-04-22T07:01:53.861Z,36.96
2023-04-22T07:04:58.622Z,36.80
2023-04-22T07:08:04.395Z,36.21
2023-04-22T07:11:08.618Z,36.03
2023-04-22T07:14:34.892Z,36.92
2023-04-22T07:17:39.506Z,36.45
2023-04-22T07:20:43.990Z,36.27
2023-04-22T07:23:48.532Z,36.24
2023-04-22T07:26:53.029Z,35.95
2023-04-22T07:30:00.541Z,35.17
2023-04-22T07:33:05.878Z,35.60
2023-04-22T07:36:10.539Z,35.38
2023-04-22T07:39:15.173Z,35.65
2023-04-22T07:42:19.847Z,35.84
2023-04-22T07:45:24.409Z,36.73
2023-04-22T07:48:28.758Z,37.30
2023-04-22T07:51:33.230Z,37.86
2023-04-22T07:54:37.768Z,38.15
2023-04-22T07:57:42.437Z,37.92
2023-04-22T08:00:47.065Z,37.89
2023-04-22T08:03:52.085Z,37.44
2023-04-22T08:06:58.190Z,37.48
2023-04-22T08:10:02.738Z,37.53
2023-04-22T08:13:07.527Z,36.87
2023-04-22T08:16:12.023Z,37.35
2023-04-22T08:19:16.552Z,37.04
2023-04-22T08:22:21.028Z,36.87
2023-04-22T08:25:25.590Z,37.30
2023-04-22T08:28:30.416Z,37.39
2023-04-22T08:31:35.906Z,37.16
2023-04-22T08:34:40.909Z,37.37
2023-04-22T08:37:45.636Z,36.85
2023-04-22T08:40:51.139Z,37.64
2023-04-22T08:43:55.418Z,37.97
2023-04-22T08:47:02.901Z,38.28
2023-04-22T08:50:10.526Z,37.78
2023-04-22T08:53:15.514Z,38.68
2023-04-22T08:56:20.247Z,38.96
2023-04-22T08:59:24.766Z,38.77
2023-04-22T09:02:30.568Z,38.78
2023-04-22T09:05:37.668Z,38.61
2023-04-22T09:08:41.776Z,38.98
2023-04-22T09:11:46.055Z,38.75
2023-04-22T09:14:50.768Z,38.60
2023-04-22T09:17:57.606Z,39.12
2023-04-22T09:21:02.161Z,39.60
2023-04-22T09:24:10.799Z,40.11
2023-04-22T09:27:17.873Z,40.24
2023-04-22T09:30:40.297Z,41.11
2023-04-22T09:33:50.605Z,41.20
2023-04-22T09:36:55.717Z,41.56
2023-04-22T09:40:00.566Z,41.78
2023-04-22T09:43:07.689Z,42.67
2023-04-22T09:46:12.982Z,43.40
2023-04-22T09:49:19.525Z,44.18
2023-04-22T09:52:25.991Z,43.42
2023-04-22T09:55:34.666Z,43.81
2023-04-22T09:58:44.324Z,44.65
2023-04-22T10:01:49.108Z,44.85
2023-04-22T10:04:53.586Z,44.75
2023-04-22T10:07:58.609Z,45.47
2023-04-22T10:11:03.238Z,45.26
2023-04-22T10:14:07.743Z,44.60
2023-04-22T10:17:14.615Z,45.06
2023-04-22T10:20:21.928Z,44.33
2023-04-22T10:23:26.785Z,44.95
2023-04-22T10:26:51.154Z,47.56
2023-04-22T10:29:58.520Z,46.85
2023-04-22T10:33:33.730Z,47.28
2023-04-22T10:36:59.727Z,46.96
2023-04-22T10:40:13.084Z,47.30
2023-04-22T10:43:22.461Z,47.12
2023-04-22T10:46:38.197Z,46.46
2023-04-22T10:49:45.362Z,46.89
2023-04-22T10:52:52.083Z,46.48
2023-04-22T10:55:57.599Z,46.98
2023-04-22T10:59:16.464Z,47.36
2023-04-22T11:02:22.063Z,47.03
2023-04-22T11:05:28.718Z,46.99
2023-04-22T11:08:33.163Z,46.95
2023-04-22T11:11:37.820Z,47.60
2023-04-22T11:14:43.140Z,47.13
2023-04-22T11:17:49.609Z,46.81
2023-04-22T11:20:55.209Z,46.72
2023-04-22T11:24:06.977Z,46.76
2023-04-22T11:27:12.197Z,47.41
2023-04-22T11:30:17.233Z,47.64
2023-04-22T11:33:22.158Z,47.61
2023-04-22T11:36:26.416Z,47.41
2023-04-22T11:39:46.578Z,46.29
2023-04-22T11:43:03.023Z,46.25
2023-04-22T11:46:09.681Z,45.79
2023-04-22T11:49:19.052Z,46.10
2023-04-22T11:52:23.622Z,45.66
2023-04-22T11:55:35.527Z,45.37
2023-04-22T11:58:42.628Z,46.28
2023-04-22T12:01:48.768Z,46.34
2023-04-22T12:04:53.238Z,46.52
2023-04-22T12:07:58.511Z,46.56
2023-04-22T12:11:05.872Z,46.75
2023-04-22T12:14:10.175Z,46.46
2023-04-22T12:17:15.774Z,46.27
2023-04-22T12:20:21.450Z,46.28
2023-04-22T12:23:26.879Z,46.18
2023-04-22T12:26:31.545Z,46.73
2023-04-22T12:29:36.558Z,46.98
2023-04-22T12:32:40.860Z,47.05
2023-04-22T12:35:47.896Z,46.71
2023-04-22T12:38:52.451Z,46.63
2023-04-22T12:41:58.627Z,46.64
2023-04-22T12:45:04.072Z,46.96
2023-04-22T12:48:11.786Z,47.50
2023-04-22T12:51:16.276Z,48.18
2023-04-22T12:54:21.849Z,47.86
2023-04-22T12:57:27.069Z,47.99
2023-04-22T13:00:32.110Z,48.45
2023-04-22T13:03:36.946Z,48.77
2023-04-22T13:06:44.203Z,48.49
2023-04-22T13:09:49.244Z,48.51
2023-04-22T13:12:56.706Z,48.43
2023-04-22T13:16:04.527Z,49.26
2023-04-22T13:19:08.822Z,49.40
2023-04-22T13:22:12.782Z,48.94
2023-04-22T13:25:17.184Z,49.03
2023-04-22T13:28:21.651Z,48.55
2023-04-22T13:31:26.181Z,49.09
2023-04-22T13:34:30.897Z,49.52
2023-04-22T13:37:35.616Z,49.53
2023-04-22T13:40:39.712Z,50.30
2023-04-22T13:43:44.048Z,50.87
2023-04-22T13:46:48.547Z,50.44
2023-04-22T13:49:53.553Z,51.61
2023-04-22T13:52:59.953Z,52.01
2023-04-22T13:56:04.360Z,52.35
2023-04-22T13:59:09.188Z,53.39
2023-04-22T14:02:13.731Z,53.79
2023-04-22T14:05:18.342Z,53.51
2023-04-22T14:08:22.754Z,53.14
2023-04-22T14:11:27.164Z,53.12
2023-04-22T14:14:31.766Z,53.32
2023-04-22T14:17:36.223Z,53.23
2023-04-22T14:20:40.170Z,54.12
2023-04-22T14:23:44.658Z,54.02
2023-04-22T14:26:49.293Z,53.32
2023-04-22T14:29:54.121Z,54.09
2023-04-22T14:32:59.005Z,54.38
2023-04-22T14:36:03.074Z,54.60
2023-04-22T14:39:07.723Z,54.53
2023-04-22T14:42:12.327Z,53.92
2023-04-22T14:45:41.569Z,54.69
2023-04-22T14:48:45.635Z,54.41
2023-04-22T14:51:50.464Z,54.02
2023-04-22T14:54:54.462Z,53.18
2023-04-22T14:57:59.428Z,53.29
2023-04-22T15:01:04.704Z,53.81
2023-04-22T15:04:13.665Z,53.07
2023-04-22T15:07:18.164Z,53.05
2023-04-22T15:10:22.775Z,53.53
2023-04-22T15:13:27.169Z,52.56
2023-04-22T15:16:31.952Z,53.15
2023-04-22T15:19:36.775Z,52.87
2023-04-22T15:22:44.355Z,53.95
2023-04-22T15:25:48.371Z,53.50
2023-04-22T15:28:52.822Z,53.51
2023-04-22T15:31:58.010Z,54.29
2023-04-22T15:35:02.965Z,54.60
2023-04-22T15:38:07.528Z,53.89
2023-04-22T15:41:12.641Z,53.77
2023-04-22T15:44:17.572Z,54.99
2023-04-22T15:47:21.487Z,53.99
2023-04-22T15:50:26.571Z,53.68
2023-04-22T15:53:34.054Z,54.19
2023-04-22T15:56:38.041Z,53.72
2023-04-22T15:59:42.653Z,54.59
2023-04-22T16:02:55.862Z,53.78
2023-04-22T16:06:00.090Z,54.13
2023-04-22T16:09:04.448Z,53.02
2023-04-22T16:12:08.737Z,53.57
2023-04-22T16:15:12.714Z,53.39
2023-04-22T16:18:17.103Z,54.38
2023-04-22T16:21:21.784Z,53.83
2023-04-22T16:24:26.273Z,53.98
2023-04-22T16:27:31.404Z,54.05
2023-04-22T16:30:36.048Z,54.04
2023-04-22T16:33:40.865Z,54.31
2023-04-22T16:36:45.251Z,53.66
2023-04-22T16:39:49.631Z,54.78
2023-04-22T16:42:54.851Z,53.94
2023-04-22T16:45:59.405Z,54.23
2023-04-22T16:49:03.381Z,54.11
2023-04-22T16:52:07.493Z,54.24
2023-04-22T16:55:11.942Z,54.47
2023-04-22T16:58:16.380Z,55.04
2023-04-22T17:01:21.190Z,55.50
2023-04-22T17:04:25.737Z,55.01
2023-04-22T17:07:30.152Z,55.61
2023-04-22T17:10:35.702Z,55.95
2023-04-22T17:13:39.999Z,55.95
2023-04-22T17:16:44.563Z,55.77
2023-04-22T17:19:48.952Z,55.89
2023-04-22T17:22:53.441Z,55.69
2023-04-22T17:25:57.757Z,56.56
2023-04-22T17:29:02.127Z,56.54
2023-04-22T17:32:06.405Z,57.06
2023-04-22T17:35:10.759Z,55.97
2023-04-22T17:38:15.365Z,56.52
2023-04-22T17:41:19.775Z,56.19
2023-04-22T17:44:24.146Z,56.41
2023-04-22T17:47:28.824Z,56.02
2023-04-22T17:50:32.856Z,56.57
2023-04-22T17:53:38.390Z,55.97
2023-04-22T17:56:42.769Z,55.74
2023-04-22T17:59:46.631Z,55.82
2023-04-22T18:02:51.026Z,55.34
2023-04-22T18:05:55.652Z,55.87
2023-04-22T18:08:59.944Z,56.44
2023-04-22T18:12:04.467Z,56.43
2023-04-22T18:15:09.256Z,56.02
2023-04-22T18:18:15.578Z,56.38
2023-04-22T18:21:23.020Z,55.67
2023-04-22T18:24:27.435Z,56.43
2023-04-22T18:27:32.331Z,55.89
2023-04-22T18:30:36.717Z,55.73
2023-04-22T18:33:41.577Z,56.13
2023-04-22T18:36:45.945Z,56.28
2023-04-22T18:39:50.279Z,55.40
2023-04-22T18:42:54.250Z,56.08
2023-04-22T18:45:58.788Z,56.18
2023-04-22T18:49:03.255Z,57.50
2023-04-22T18:52:07.680Z,56.38
2023-04-22T18:55:12.174Z,56.76
2023-04-22T18:58:17.003Z,56.98
2023-04-22T19:01:21.436Z,57.39
2023-04-22T19:04:25.485Z,56.90
2023-04-22T19:07:29.552Z,56.90
2023-04-22T19:10:33.817Z,56.49
2023-04-22T19:13:38.062Z,56.41
2023-04-22T19:16:42.479Z,56.91
2023-04-22T19:19:47.380Z,56.78
2023-04-22T19:22:51.922Z,56.94
2023-04-22T19:25:56.813Z,57.05
2023-04-22T19:29:01.241Z,57.59
2023-04-22T19:32:05.965Z,57.03
2023-04-22T19:35:16.525Z,57.45
2023-04-22T19:38:23.138Z,56.13
2023-04-22T19:41:27.220Z,57.62
2023-04-22T19:44:31.774Z,57.69
2023-04-22T19:47:37.382Z,57.83
2023-04-22T19:50:45.300Z,57.53
2023-04-22T19:53:50.562Z,57.55
2023-04-22T19:56:55.803Z,57.43
2023-04-22T20:00:00.528Z,58.39
2023-04-22T20:03:08.336Z,57.92
2023-04-22T20:06:16.713Z,58.16
2023-04-22T20:09:22.488Z,57.97
2023-04-22T20:12:29.464Z,60.43
2023-04-22T20:15:34.052Z,58.90
2023-04-22T20:18:38.666Z,59.18
2023-04-22T20:21:44.274Z,59.25
2023-04-22T20:24:51.729Z,59.64
2023-04-22T20:27:57.546Z,60.43
2023-04-22T20:31:02.513Z,62.63
2023-04-22T20:34:07.005Z,61.59
2023-04-22T20:37:13.896Z,60.93
2023-04-22T20:40:19.526Z,61.82
2023-04-22T20:43:24.398Z,61.07
2023-04-22T20:46:29.172Z,60.91
2023-04-22T20:49:33.738Z,59.97
2023-04-22T20:52:38.367Z,59.89
2023-04-22T20:55:43.000Z,59.17
2023-04-22T20:58:47.516Z,58.97
2023-04-22T21:01:53.404Z,58.93
2023-04-22T21:04:59.588Z,59.53
2023-04-22T21:08:08.082Z,59.56
2023-04-22T21:11:12.668Z,59.18
2023-04-22T21:14:19.254Z,59.67
2023-04-22T21:17:32.454Z,58.79
2023-04-22T21:20:46.004Z,59.51
2023-04-22T21:23:52.590Z,59.86
2023-04-22T21:26:57.605Z,61.11
2023-04-22T21:30:02.916Z,60.49
2023-04-22T21:33:09.436Z,62.92
2023-04-22T21:36:13.866Z,63.10
2023-04-22T21:39:18.260Z,64.97
2023-04-22T21:42:22.792Z,67.64
2023-04-22T21:45:31.650Z,68.43
2023-04-22T21:48:35.938Z,69.24
2023-04-22T21:51:39.979Z,68.96
2023-04-22T21:54:45.005Z,67.66
2023-04-22T21:57:50.171Z,68.08
2023-04-22T22:00:54.764Z,67.90
2023-04-22T22:03:59.233Z,67.89
2023-04-22T22:07:03.721Z,66.68
2023-04-22T22:10:16.820Z,69.54
2023-04-22T22:13:20.786Z,68.78
2023-04-22T22:16:25.572Z,67.58
2023-04-22T22:19:31.613Z,67.18
2023-04-22T22:22:36.204Z,70.66
2023-04-22T22:25:40.623Z,70.64
2023-04-22T22:28:45.156Z,70.31
2023-04-22T22:31:49.990Z,70.37
2023-04-22T22:34:54.628Z,70.39
2023-04-22T22:37:58.626Z,72.09
2023-04-22T22:41:02.688Z,72.54
2023-04-22T22:44:07.054Z,72.17
2023-04-22T22:47:12.180Z,72.98
2023-04-22T22:50:16.582Z,73.17
2023-04-22T22:53:21.036Z,72.81
2023-04-22T22:56:25.659Z,72.34
2023-04-22T22:59:30.208Z,70.92
2023-04-22T23:02:35.121Z,72.27
2023-04-22T23:05:39.690Z,73.26
2023-04-22T23:08:44.472Z,72.23
2023-04-22T23:11:52.641Z,72.58
2023-04-22T23:14:57.059Z,72.54
2023-04-22T23:18:01.560Z,74.84
2023-04-22T23:21:07.292Z,75.43
2023-04-22T23:24:13.191Z,74.59
2023-04-22T23:27:18.252Z,74.03
2023-04-22T23:30:23.421Z,75.18
2023-04-22T23:33:29.605Z,75.21
2023-04-22T23:36:37.120Z,75.67
2023-04-22T23:39:42.819Z,75.80
2023-04-22T23:42:47.179Z,75.10
2023-04-22T23:45:52.115Z,73.94
2023-04-22T23:48:58.060Z,75.88
2023-04-22T23:52:02.657Z,77.56
2023-04-22T23:55:08.416Z,78.14
2023-04-22T23:58:12.262Z,77.99
